Time;durP1;ratioP1;P1;durP2;ratioP2;P2;SDS_P1;SDS_P2;PMS_P1;PMS_P2;Temp;Humidity;BMP_temperature;BMP_pressure;BME280_temperature;BME280_humidity;BME280_pressure;Samples;Min_cycle;Max_cycle;Signal;HPM_P1;HPM_P2
2022/08/30 00:02:27;;;;;;;3.47;1.30;;;;;;;19.03;71.79;101589.38;4999713;28;20223;-67
2022/08/30 00:04:53;;;;;;;2.33;1.30;;;;;;;19.12;71.39;101578.88;5003505;28;20096;-68
2022/08/30 00:07:20;;;;;;;5.53;1.33;;;;;;;19.07;71.86;101581.03;5000421;28;20056;-67
2022/08/30 00:09:46;;;;;;;3.42;1.50;;;;;;;19.18;71.64;101589.06;5003577;28;20120;-67
2022/08/30 00:12:12;;;;;;;2.08;1.20;;;;;;;19.21;71.40;101586.19;5003827;28;20115;-67
2022/08/30 00:14:39;;;;;;;3.15;1.50;;;;;;;19.22;71.20;101592.34;5003483;28;20046;-67
2022/08/30 00:17:06;;;;;;;3.53;1.58;;;;;;;19.36;70.47;101582.38;5005292;28;20049;-68
2022/08/30 00:19:33;;;;;;;2.80;1.48;;;;;;;19.51;69.91;101591.03;5001496;28;20041;-68
2022/08/30 00:21:59;;;;;;;5.55;1.67;;;;;;;19.52;69.68;101590.06;5003114;28;20042;-68
2022/08/30 00:24:26;;;;;;;2.15;1.20;;;;;;;19.47;70.03;101588.75;5003174;28;20100;-68
2022/08/30 00:26:52;;;;;;;2.97;1.33;;;;;;;19.37;70.17;101591.19;5003771;28;20073;-68
2022/08/30 00:29:19;;;;;;;7.43;1.70;;;;;;;19.30;70.79;101592.63;5004681;28;20070;-68
2022/08/30 00:31:45;;;;;;;2.83;1.38;;;;;;;19.14;71.43;101600.88;4998979;28;20046;-68
2022/08/30 00:34:15;;;;;;;3.28;1.63;;;;;;;18.85;72.38;101595.03;4997598;28;20042;-68
2022/08/30 00:36:41;;;;;;;2.67;1.70;;;;;;;18.80;72.50;101594.56;5005657;28;20061;-68
2022/08/30 00:39:08;;;;;;;4.63;1.88;;;;;;;18.68;73.33;101595.44;5006491;28;20132;-67
2022/08/30 00:41:35;;;;;;;4.50;1.30;;;;;;;18.59;73.66;101593.41;4996048;28;20037;-67
2022/08/30 00:44:02;;;;;;;2.78;1.50;;;;;;;18.69;73.04;101605.09;5006892;28;20068;-68
2022/08/30 00:46:31;;;;;;;5.07;1.40;;;;;;;18.63;73.87;101599.34;5006469;28;20042;-68
2022/08/30 00:48:59;;;;;;;2.22;1.50;;;;;;;18.66;73.56;101597.31;5003594;28;20490;-67
2022/08/30 00:51:26;;;;;;;4.13;1.50;;;;;;;18.69;73.45;101599.78;4999629;28;20104;-67
2022/08/30 00:53:56;;;;;;;2.67;1.52;;;;;;;18.62;73.92;101597.69;5004326;28;20049;-67
2022/08/30 00:56:24;;;;;;;3.65;1.35;;;;;;;18.65;73.85;101597.47;5005275;28;20124;-68
2022/08/30 00:58:54;;;;;;;8.15;1.98;;;;;;;18.55;74.20;101601.75;4978313;28;20042;-68
2022/08/30 01:01:20;;;;;;;2.53;1.35;;;;;;;18.57;74.07;101603.31;5003382;28;20038;-68
2022/08/30 01:03:47;;;;;;;7.97;1.85;;;;;;;18.56;73.95;101595.44;5001178;28;20051;-68
2022/08/30 01:06:14;;;;;;;3.45;1.50;;;;;;;18.53;74.71;101599.19;5001061;28;20046;-68
2022/08/30 01:08:42;;;;;;;2.70;1.40;;;;;;;18.64;74.53;101604.56;4995918;28;20050;-67
2022/08/30 01:11:11;;;;;;;3.40;1.45;;;;;;;18.51;74.68;101608.19;5003093;28;20073;-67
2022/08/30 01:13:39;;;;;;;2.90;1.45;;;;;;;18.52;75.20;101604.59;5015160;28;20137;-67
2022/08/30 01:16:06;;;;;;;4.03;1.80;;;;;;;18.49;75.32;101606.47;5006225;28;20116;-68
2022/08/30 01:18:32;;;;;;;3.88;1.67;;;;;;;18.70;74.46;101608.59;5001873;28;20135;-68
2022/08/30 01:21:05;;;;;;;4.85;2.03;;;;;;;18.68;75.02;101598.09;5006263;28;20122;-68
2022/08/30 01:23:34;;;;;;;4.63;1.77;;;;;;;18.61;74.69;101607.44;5003944;28;20169;-68
2022/08/30 01:26:03;;;;;;;5.15;1.95;;;;;;;18.57;75.38;101602.47;5007784;28;20042;-68
2022/08/30 01:28:30;;;;;;;3.42;1.52;;;;;;;18.43;76.03;101596.31;5007712;28;20506;-67
2022/08/30 01:30:57;;;;;;;2.30;1.70;;;;;;;18.27;76.77;101600.13;5005603;28;20457;-68
2022/08/30 01:33:24;;;;;;;3.97;1.77;;;;;;;18.52;75.53;101602.78;5007177;28;20666;-68
2022/08/30 01:35:57;;;;;;;4.15;2.38;;;;;;;18.39;76.25;101597.47;5005183;28;20050;-67
2022/08/30 01:38:26;;;;;;;3.80;1.83;;;;;;;18.33;76.41;101597.88;4999447;28;20046;-67
2022/08/30 01:40:59;;;;;;;3.67;2.17;;;;;;;18.34;76.53;101599.59;5002251;28;20382;-67
2022/08/30 01:43:25;;;;;;;;;;;;;;;18.36;76.58;101605.66;5007112;28;20038;-67
2022/08/30 01:45:51;;;;;;;5.18;1.98;;;;;;;18.22;77.37;101608.41;5005090;28;19980;-68
2022/08/30 01:48:20;;;;;;;3.08;1.88;;;;;;;18.43;76.50;101601.63;5005038;28;20038;-68
2022/08/30 01:50:47;;;;;;;4.40;2.13;;;;;;;18.45;76.11;101601.50;5006614;28;20493;-67
2022/08/30 01:53:13;;;;;;;3.47;1.92;;;;;;;18.50;75.91;101610.00;5005590;28;20486;-67
2022/08/30 01:55:40;;;;;;;4.40;2.10;;;;;;;18.49;76.03;101601.16;5006768;28;20073;-67
2022/08/30 01:58:08;;;;;;;2.45;1.92;;;;;;;18.58;76.04;101606.81;5007440;28;20513;-67
2022/08/30 02:00:34;;;;;;;3.38;1.90;;;;;;;18.71;75.34;101597.84;5005391;28;20048;-67
2022/08/30 02:03:00;;;;;;;5.53;2.55;;;;;;;18.68;75.35;101599.88;4996264;28;20050;-67
2022/08/30 02:05:27;;;;;;;2.42;1.83;;;;;;;18.70;75.41;101603.28;5003027;28;20103;-67
2022/08/30 02:07:53;;;;;;;4.05;1.95;;;;;;;18.72;75.06;101604.88;5005370;28;20100;-67
2022/08/30 02:10:20;;;;;;;3.38;2.10;;;;;;;18.65;75.51;101608.06;4988409;28;20494;-67
2022/08/30 02:12:47;;;;;;;4.05;2.10;;;;;;;18.57;76.06;101613.09;4996670;28;20049;-67
2022/08/30 02:15:14;;;;;;;3.67;1.98;;;;;;;18.40;76.65;101611.59;4998764;28;20052;-67
2022/08/30 02:17:41;;;;;;;7.32;2.25;;;;;;;18.68;75.34;101611.38;4994636;28;20525;-67
2022/08/30 02:20:09;;;;;;;2.15;1.80;;;;;;;18.72;75.32;101612.84;5005497;28;20126;-67
2022/08/30 02:22:35;;;;;;;4.35;2.53;;;;;;;18.70;75.37;101608.59;4999876;28;20469;-68
2022/08/30 02:25:02;;;;;;;143.77;7.88;;;;;;;18.45;76.46;101610.31;5005167;28;20120;-68
2022/08/30 02:27:29;;;;;;;3.97;2.10;;;;;;;18.60;75.83;101605.75;5005884;28;20180;-67
2022/08/30 02:29:55;;;;;;;4.35;2.40;;;;;;;18.54;75.82;101613.31;5004931;28;20049;-67
2022/08/30 02:32:23;;;;;;;3.45;2.40;;;;;;;18.35;77.03;101609.28;5005977;28;20050;-68
2022/08/30 02:34:49;;;;;;;6.20;2.50;;;;;;;18.41;75.92;101603.50;5006070;28;20560;-67
2022/08/30 02:37:16;;;;;;;6.05;2.42;;;;;;;18.48;75.86;101604.78;5004998;28;20454;-67
2022/08/30 02:39:42;;;;;;;6.85;2.33;;;;;;;18.45;75.34;101610.31;5005272;28;20046;-67
2022/08/30 02:42:09;;;;;;;3.30;2.35;;;;;;;18.51;74.69;101602.88;5006616;28;20580;-67
2022/08/30 02:44:35;;;;;;;3.20;2.45;;;;;;;18.40;74.73;101612.44;5002483;28;20042;-67
2022/08/30 02:47:01;;;;;;;3.97;2.50;;;;;;;18.22;75.18;101604.91;4986855;28;20054;-68
2022/08/30 02:49:29;;;;;;;7.38;3.20;;;;;;;17.85;77.85;101603.94;4986009;28;20128;-68
2022/08/30 02:51:55;;;;;;;4.78;2.85;;;;;;;17.77;78.20;101601.00;4997312;28;20076;-67
2022/08/30 02:54:22;;;;;;;3.63;3.20;;;;;;;17.82;77.99;101602.34;5005933;28;20391;-67
2022/08/30 02:56:48;;;;;;;3.55;2.75;;;;;;;17.88;78.51;101603.75;5006338;28;20560;-67
2022/08/30 02:59:15;;;;;;;5.22;3.00;;;;;;;18.00;77.12;101597.59;5003267;28;20046;-67
2022/08/30 03:01:41;;;;;;;6.22;2.95;;;;;;;17.91;77.47;101603.53;5005658;28;20077;-67
2022/08/30 03:04:08;;;;;;;5.00;3.40;;;;;;;17.74;78.43;101609.97;5006067;28;20053;-67
2022/08/30 03:06:37;;;;;;;6.82;3.47;;;;;;;17.84;78.01;101613.72;5005391;28;20501;-67
2022/08/30 03:09:04;;;;;;;5.72;3.42;;;;;;;17.73;78.11;101610.09;4985326;28;20066;-67
2022/08/30 03:11:31;;;;;;;6.20;3.67;;;;;;;17.59;78.48;101604.88;4991641;28;20053;-67
2022/08/30 03:13:58;;;;;;;5.88;3.88;;;;;;;17.51;79.31;101603.53;5009258;28;20069;-68
2022/08/30 03:16:24;;;;;;;4.90;3.35;;;;;;;17.59;78.39;101603.06;5003477;28;20044;-67
2022/08/30 03:18:51;;;;;;;4.35;3.33;;;;;;;17.47;78.76;101602.06;5005891;28;20065;-67
2022/08/30 03:21:17;;;;;;;6.60;3.92;;;;;;;17.60;78.02;101604.75;5003892;28;20069;-67
2022/08/30 03:23:45;;;;;;;7.03;3.85;;;;;;;17.36;79.47;101606.38;5005935;28;20054;-67
2022/08/30 03:26:13;;;;;;;6.00;4.20;;;;;;;17.22;80.50;101606.44;5005347;28;20579;-67
2022/08/30 03:28:41;;;;;;;10.88;4.35;;;;;;;17.37;80.03;101603.59;4993487;28;20061;-67
2022/08/30 03:31:08;;;;;;;8.15;4.53;;;;;;;17.29;80.14;101602.44;5011856;28;20049;-67
2022/08/30 03:33:34;;;;;;;5.35;3.80;;;;;;;17.43;79.55;101607.66;5025150;28;20124;-67
2022/08/30 03:36:01;;;;;;;11.88;4.45;;;;;;;17.12;80.43;101614.13;5005457;28;20096;-67
2022/08/30 03:38:27;;;;;;;5.82;4.13;;;;;;;17.26;80.35;101622.03;5003942;28;20108;-66
2022/08/30 03:40:55;;;;;;;6.57;4.10;;;;;;;17.29;80.25;101613.91;5005384;28;20115;-66
2022/08/30 03:43:21;;;;;;;7.35;4.32;;;;;;;17.07;81.54;101620.69;4997617;28;20560;-66
2022/08/30 03:45:48;;;;;;;6.55;4.78;;;;;;;16.88;83.06;101613.06;4976060;28;20051;-66
2022/08/30 03:48:14;;;;;;;7.82;4.55;;;;;;;17.02;83.40;101613.88;4985953;28;20591;-66
2022/08/30 03:50:40;;;;;;;7.05;4.75;;;;;;;17.19;83.28;101610.13;4984324;28;20093;-67
2022/08/30 03:53:07;;;;;;;7.22;4.80;;;;;;;17.45;81.54;101606.59;4980048;28;20051;-67
2022/08/30 03:55:33;;;;;;;8.25;5.22;;;;;;;17.36;81.44;101612.53;4965537;28;20094;-67
2022/08/30 03:58:01;;;;;;;7.70;4.43;;;;;;;17.46;81.38;101612.75;4965288;28;20058;-67
2022/08/30 04:00:28;;;;;;;6.20;4.55;;;;;;;17.09;82.64;101611.69;4966631;28;20452;-67
2022/08/30 04:02:54;;;;;;;6.60;4.32;;;;;;;17.27;81.92;101617.56;4966285;28;20047;-67
2022/08/30 04:05:21;;;;;;;6.50;4.50;;;;;;;17.43;80.50;101613.81;4980867;28;20121;-67
2022/08/30 04:07:47;;;;;;;7.60;5.00;;;;;;;17.29;80.30;101616.53;5008723;28;20046;-67
2022/08/30 04:10:14;;;;;;;7.00;4.55;;;;;;;17.33;80.33;101618.00;5007793;28;20076;-67
2022/08/30 04:12:40;;;;;;;11.40;4.32;;;;;;;17.14;80.79;101617.53;5008614;28;20049;-67
2022/08/30 04:15:10;;;;;;;8.05;4.70;;;;;;;17.12;80.85;101622.09;5009673;28;20046;-67
2022/08/30 04:17:37;;;;;;;7.10;4.93;;;;;;;17.26;79.77;101616.72;5008459;28;20045;-67
2022/08/30 04:20:04;;;;;;;6.45;4.43;;;;;;;17.36;78.84;101617.84;5007364;28;20120;-67
2022/08/30 04:22:30;;;;;;;7.70;4.82;;;;;;;17.27;78.96;101620.22;5009139;28;20494;-67
2022/08/30 04:24:56;;;;;;;7.35;4.95;;;;;;;17.12;79.13;101618.56;5006013;28;20504;-67
2022/08/30 04:27:23;;;;;;;6.10;4.28;;;;;;;17.23;79.14;101626.69;5006522;28;20050;-67
2022/08/30 04:29:49;;;;;;;8.70;5.40;;;;;;;17.26;79.50;101621.16;5008340;28;20046;-67
2022/08/30 04:32:17;;;;;;;8.90;5.20;;;;;;;17.22;79.70;101625.00;5007821;28;20111;-67
2022/08/30 04:34:44;;;;;;;8.23;4.82;;;;;;;17.26;80.04;101626.47;5010357;28;20100;-67
2022/08/30 04:37:10;;;;;;;8.00;4.95;;;;;;;17.34;79.89;101625.03;5009543;28;20513;-67
2022/08/30 04:39:37;;;;;;;9.88;5.00;;;;;;;17.42;79.65;101622.72;5007936;28;20104;-67
2022/08/30 04:42:03;;;;;;;8.25;5.75;;;;;;;17.45;79.63;101627.81;5005630;28;20096;-67
2022/08/30 04:44:31;;;;;;;8.32;5.28;;;;;;;17.39;80.27;101641.50;5006410;28;20045;-67
2022/08/30 04:46:57;;;;;;;7.78;5.13;;;;;;;17.53;80.34;101636.13;5007395;28;20158;-67
2022/08/30 04:49:25;;;;;;;9.15;5.43;;;;;;;17.60;80.17;101638.38;5025440;28;20053;-66
2022/08/30 04:51:51;;;;;;;10.93;5.22;;;;;;;17.60;79.53;101638.38;5027642;28;20103;-66
2022/08/30 04:54:18;;;;;;;9.57;5.50;;;;;;;17.66;79.69;101635.34;5026914;28;20489;-66
2022/08/30 04:56:44;;;;;;;8.68;5.25;;;;;;;17.76;79.47;101644.38;5026598;28;20100;-66
2022/08/30 04:59:10;;;;;;;11.90;5.53;;;;;;;17.71;79.50;101652.63;5028984;28;20041;-67
2022/08/30 05:01:37;;;;;;;9.95;5.80;;;;;;;17.64;79.97;101653.16;5017748;28;20041;-66
2022/08/30 05:04:05;;;;;;;8.63;5.10;;;;;;;17.65;80.43;101653.06;5006423;28;20069;-66
2022/08/30 05:06:33;;;;;;;8.18;5.13;;;;;;;17.84;80.08;101658.84;5006519;28;20125;-66
2022/08/30 05:09:00;;;;;;;11.68;5.97;;;;;;;17.91;80.49;101661.91;5006450;28;20045;-66
2022/08/30 05:11:27;;;;;;;13.55;6.28;;;;;;;18.08;79.24;101655.44;5006061;28;20069;-66
2022/08/30 05:13:53;;;;;;;11.52;6.10;;;;;;;18.22;78.96;101658.00;5007439;28;20050;-66
2022/08/30 05:16:19;;;;;;;13.10;6.40;;;;;;;18.27;79.23;101664.72;5004635;28;20045;-66
2022/08/30 05:18:47;;;;;;;13.25;6.00;;;;;;;18.20;79.50;101668.75;4997926;28;20461;-66
2022/08/30 05:21:17;;;;;;;10.35;5.93;;;;;;;18.16;79.77;101669.91;4997759;28;20043;-66
2022/08/30 05:23:45;;;;;;;10.43;5.53;;;;;;;18.27;79.17;101669.16;5000936;28;20045;-66
2022/08/30 05:26:15;;;;;;;9.10;5.97;;;;;;;18.39;79.71;101677.13;4994347;28;20042;-66
2022/08/30 05:28:41;;;;;;;8.95;4.90;;;;;;;18.41;79.24;101682.31;5001193;28;20053;-67
2022/08/30 05:31:14;;;;;;;8.98;5.82;;;;;;;18.25;79.79;101677.25;5013477;28;20057;-66
2022/08/30 05:33:40;;;;;;;10.10;6.28;;;;;;;18.36;79.65;101682.66;5006386;28;20120;-67
2022/08/30 05:36:08;;;;;;;11.40;5.90;;;;;;;18.51;79.42;101679.91;5007431;28;20077;-67
2022/08/30 05:38:35;;;;;;;7.90;5.45;;;;;;;18.38;79.08;101683.41;5006944;28;20068;-67
2022/08/30 05:41:03;;;;;;;9.18;6.15;;;;;;;18.42;78.97;101682.22;5004610;28;20132;-67
2022/08/30 05:43:29;;;;;;;8.40;5.50;;;;;;;18.34;79.57;101681.91;5006021;28;20042;-67
2022/08/30 05:45:59;;;;;;;7.57;5.43;;;;;;;18.37;79.44;101694.09;5001846;28;20123;-67
2022/08/30 05:48:25;;;;;;;9.27;5.47;;;;;;;18.60;78.86;101688.09;5001328;28;20406;-67
2022/08/30 05:51:01;;;;;;;10.43;5.82;;;;;;;18.67;78.91;101685.84;5006478;28;20050;-67
2022/08/30 05:53:27;;;;;;;14.05;6.10;;;;;;;18.88;77.55;101698.47;5004853;28;20425;-67
2022/08/30 05:55:54;;;;;;;7.80;5.47;;;;;;;19.04;77.25;101692.91;5007013;28;20045;-67
2022/08/30 05:58:21;;;;;;;10.65;5.68;;;;;;;19.18;76.41;101699.91;5007241;28;20062;-66
2022/08/30 06:00:48;;;;;;;10.38;5.50;;;;;;;19.31;76.48;101685.59;5005238;28;20064;-66
2022/08/30 06:03:14;;;;;;;6.43;5.00;;;;;;;19.57;75.49;101694.34;5007599;28;20049;-67
2022/08/30 06:05:40;;;;;;;6.60;5.47;;;;;;;19.73;74.94;101688.72;5006502;28;20089;-67
2022/08/30 06:08:07;;;;;;;13.20;5.18;;;;;;;19.56;75.30;101689.13;5004132;28;20046;-67
2022/08/30 06:10:33;;;;;;;8.07;5.25;;;;;;;19.68;75.71;101693.53;5006512;28;20049;-67
2022/08/30 06:12:59;;;;;;;7.20;4.63;;;;;;;19.84;74.26;101688.78;5004106;28;20050;-67
2022/08/30 06:15:27;;;;;;;6.78;4.45;;;;;;;20.09;73.62;101679.75;5004542;28;20046;-67
2022/08/30 06:17:53;;;;;;;6.68;4.43;;;;;;;20.43;72.29;101686.03;4986106;28;20058;-67
2022/08/30 06:20:20;;;;;;;7.78;4.15;;;;;;;20.42;71.99;101679.84;4988811;28;20049;-67
2022/08/30 06:22:46;;;;;;;6.65;4.18;;;;;;;20.43;72.04;101678.03;5005182;28;20571;-67
2022/08/30 06:25:15;;;;;;;5.50;3.70;;;;;;;20.64;71.17;101679.88;5004934;28;20038;-67
2022/08/30 06:27:41;;;;;;;7.47;4.15;;;;;;;20.72;70.83;101681.94;5003754;28;20132;-67
2022/08/30 06:30:09;;;;;;;7.10;3.55;;;;;;;20.87;70.15;101686.03;5002745;28;20050;-68
2022/08/30 06:32:39;;;;;;;6.25;3.58;;;;;;;20.57;70.08;101691.13;5006432;28;20077;-67
2022/08/30 06:35:07;;;;;;;7.63;3.42;;;;;;;20.88;69.81;101690.38;5005409;28;20042;-67
2022/08/30 06:37:34;;;;;;;6.25;3.20;;;;;;;21.09;68.91;101688.69;5004263;28;20061;-67
2022/08/30 06:40:02;;;;;;;7.78;3.60;;;;;;;20.84;70.29;101695.09;4989855;28;20046;-67
2022/08/30 06:42:32;;;;;;;5.38;3.45;;;;;;;21.12;69.66;101700.94;4986172;28;20553;-67
2022/08/30 06:44:59;;;;;;;4.70;2.80;;;;;;;20.94;69.09;101700.56;5002923;28;20041;-69
2022/08/30 06:47:25;;;;;;;4.55;2.53;;;;;;;20.91;68.35;101703.50;5002686;28;20096;-69
2022/08/30 06:49:53;;;;;;;5.53;2.70;;;;;;;21.05;67.61;101711.22;5004803;28;20054;-68
2022/08/30 06:52:19;;;;;;;8.20;2.83;;;;;;;21.03;68.65;101701.63;5004905;28;20041;-69
2022/08/30 06:54:46;;;;;;;4.15;2.63;;;;;;;21.17;67.85;101704.09;5005050;28;20056;-69
2022/08/30 06:57:12;;;;;;;4.22;2.50;;;;;;;21.15;66.75;101704.22;5005526;28;20096;-69
2022/08/30 06:59:39;;;;;;;3.67;2.40;;;;;;;21.32;66.98;101705.53;5024154;28;20091;-69
2022/08/30 07:02:06;;;;;;;3.25;2.50;;;;;;;21.12;67.01;101711.59;5004328;28;20112;-69
2022/08/30 07:04:32;;;;;;;5.15;2.42;;;;;;;20.99;66.66;101700.22;5016398;28;20045;-69
2022/08/30 07:07:00;;;;;;;5.38;2.45;;;;;;;20.89;67.19;101702.75;5004180;28;20054;-69
2022/08/30 07:09:26;;;;;;;6.88;2.75;;;;;;;21.14;67.24;101699.84;4999571;28;20042;-70
2022/08/30 07:11:53;;;;;;;8.20;2.55;;;;;;;21.39;66.89;101704.06;5004417;28;20046;-67
2022/08/30 07:14:20;;;;;;;4.47;2.50;;;;;;;21.35;66.68;101700.78;5002550;28;20049;-67
2022/08/30 07:16:47;;;;;;;4.32;2.67;;;;;;;21.66;65.71;101706.25;5006642;28;20103;-67
2022/08/30 07:19:12;;;;;;;4.47;2.50;;;;;;;21.25;66.26;101704.28;5007291;28;20081;-67
2022/08/30 07:21:42;;;;;;;7.35;2.72;;;;;;;21.21;67.02;101706.38;5001532;28;20231;-67
2022/08/30 07:24:11;;;;;;;6.80;2.72;;;;;;;20.93;68.54;101709.53;5004978;28;20065;-67
2022/08/30 07:26:40;;;;;;;5.78;2.70;;;;;;;21.03;68.25;101702.50;4991383;28;20046;-67
2022/08/30 07:29:07;;;;;;;8.13;3.20;;;;;;;21.43;66.67;101707.31;4989816;28;20050;-67
2022/08/30 07:31:34;;;;;;;8.05;2.58;;;;;;;21.48;66.49;101718.44;5019874;28;20501;-67
2022/08/30 07:34:01;;;;;;;3.35;2.30;;;;;;;21.64;66.23;101716.22;5011494;28;20033;-67
2022/08/30 07:36:28;;;;;;;6.05;3.20;;;;;;;22.00;65.03;101710.50;5009726;28;20096;-67
2022/08/30 07:38:54;;;;;;;4.25;3.00;;;;;;;22.26;64.17;101719.81;5010183;28;20148;-67
2022/08/30 07:41:25;;;;;;;4.13;2.58;;;;;;;21.36;65.65;101717.59;5014966;28;20112;-67
2022/08/30 07:43:51;;;;;;;5.43;2.78;;;;;;;22.06;65.04;101726.00;5015012;28;20046;-67
2022/08/30 07:46:19;;;;;;;5.80;2.40;;;;;;;22.46;64.10;101715.44;5013059;28;20046;-67
2022/08/30 07:48:45;;;;;;;5.93;2.50;;;;;;;22.37;63.01;101716.22;5023263;28;20070;-67
2022/08/30 07:51:13;;;;;;;5.00;2.40;;;;;;;22.51;63.24;101718.56;5007429;28;20050;-67
2022/08/30 07:53:40;;;;;;;9.32;2.45;;;;;;;22.45;63.20;101712.91;5008306;28;20571;-67
2022/08/30 07:56:07;;;;;;;3.70;2.17;;;;;;;22.36;62.52;101725.22;5005208;28;20456;-67
2022/08/30 07:58:36;;;;;;;5.35;2.70;;;;;;;22.26;63.49;101724.31;4999628;28;20049;-67
2022/08/30 08:01:03;;;;;;;5.07;2.13;;;;;;;22.25;63.25;101728.81;5017548;28;20041;-67
2022/08/30 08:03:30;;;;;;;3.35;2.40;;;;;;;22.38;62.59;101719.75;5028169;28;20045;-67
2022/08/30 08:05:56;;;;;;;4.47;2.38;;;;;;;22.23;63.57;101728.09;5011654;28;20041;-67
2022/08/30 08:08:24;;;;;;;4.82;2.30;;;;;;;21.99;63.51;101724.00;5011946;28;20107;-67
2022/08/30 08:10:50;;;;;;;7.47;2.55;;;;;;;22.09;63.35;101736.44;5009866;28;20095;-67
2022/08/30 08:13:16;;;;;;;3.78;2.20;;;;;;;22.18;63.49;101735.66;5005894;28;20512;-67
2022/08/30 08:15:44;;;;;;;4.25;2.35;;;;;;;22.26;62.60;101738.53;5008640;28;20819;-67
2022/08/30 08:18:10;;;;;;;6.28;2.67;;;;;;;22.25;63.00;101731.47;5008755;28;20096;-67
2022/08/30 08:20:37;;;;;;;3.80;2.25;;;;;;;21.92;63.45;101742.34;5007607;28;20493;-67
2022/08/30 08:23:03;;;;;;;4.90;2.63;;;;;;;21.66;64.04;101744.47;5006974;28;20050;-67
2022/08/30 08:25:30;;;;;;;4.38;2.50;;;;;;;21.67;64.65;101753.31;5005608;28;20058;-68
2022/08/30 08:27:57;;;;;;;4.30;2.17;;;;;;;21.49;64.29;101746.81;5006388;28;20100;-67
2022/08/30 08:30:23;;;;;;;5.00;2.50;;;;;;;21.67;64.58;101753.31;5014987;28;20068;-67
2022/08/30 08:32:51;;;;;;;4.93;2.60;;;;;;;21.89;64.46;101750.56;5027539;28;20049;-67
2022/08/30 08:35:18;;;;;;;4.72;2.40;;;;;;;21.83;63.88;101745.75;5009093;28;20065;-67
2022/08/30 08:37:45;;;;;;;5.15;2.80;;;;;;;21.87;62.94;101746.34;5011986;28;20045;-67
2022/08/30 08:40:15;;;;;;;3.92;2.10;;;;;;;22.11;62.96;101750.50;5009514;28;20053;-67
2022/08/30 08:42:53;;;;;;;4.43;2.50;;;;;;;21.68;62.99;101747.03;5007435;28;20077;-67
2022/08/30 08:45:30;;;;;;;8.75;2.63;;;;;;;21.71;63.81;101752.09;5009048;28;20050;-67
2022/08/30 08:48:03;;;;;;;6.30;2.97;;;;;;;21.69;64.21;101749.53;5008367;28;20049;-67
2022/08/30 08:50:29;;;;;;;6.03;2.55;;;;;;;21.65;63.80;101757.94;5026589;28;20049;-67
2022/08/30 08:55:49;;;;;;;3.35;1.90;;;;;;;22.29;62.35;101743.59;5006552;28;20537;-67
2022/08/30 08:58:25;;;;;;;5.25;2.70;;;;;;;22.30;62.68;101747.13;5005546;28;20049;-67
2022/08/30 09:00:53;;;;;;;3.17;1.92;;;;;;;22.43;61.38;101750.44;5017842;28;20123;-67
2022/08/30 09:03:23;;;;;;;5.82;2.50;;;;;;;22.55;61.22;101744.03;4992960;28;20096;-67
2022/08/30 09:05:50;;;;;;;4.93;2.20;;;;;;;22.66;60.67;101748.47;4996108;28;20100;-67
2022/08/30 09:08:19;;;;;;;3.75;1.88;;;;;;;22.59;60.34;101755.31;5012857;28;20124;-67
2022/08/30 09:10:52;;;;;;;5.22;1.90;;;;;;;22.15;61.26;101749.28;5025776;28;20463;-67
2022/08/30 09:13:18;;;;;;;3.95;1.90;;;;;;;22.46;61.20;101747.53;5007965;28;20062;-67
2022/08/30 09:15:45;;;;;;;3.70;2.05;;;;;;;22.99;59.23;101763.44;4999029;28;20049;-67
2022/08/30 09:18:11;;;;;;;4.63;2.33;;;;;;;23.39;59.37;101758.09;5016509;28;20099;-67
2022/08/30 09:20:42;;;;;;;4.35;2.10;;;;;;;23.63;57.44;101763.94;5004533;28;20473;-67
2022/08/30 09:23:22;;;;;;;3.78;2.17;;;;;;;23.77;57.86;101752.81;5016739;28;20414;-67
2022/08/30 09:25:51;;;;;;;5.65;2.20;;;;;;;23.80;57.16;101754.38;5025827;28;20046;-66
2022/08/30 09:28:22;;;;;;;2.40;1.65;;;;;;;23.99;56.62;101765.94;5018971;28;20045;-66
2022/08/30 09:31:02;;;;;;;2.55;1.70;;;;;;;23.81;55.67;101764.94;5004748;28;20050;-66
2022/08/30 09:33:29;;;;;;;10.90;1.90;;;;;;;24.02;56.32;101767.50;5006089;28;20065;-66
2022/08/30 09:36:09;;;;;;;6.45;1.80;;;;;;;24.08;55.68;101756.19;5007486;28;20103;-67
2022/08/30 09:38:35;;;;;;;4.68;1.77;;;;;;;23.80;55.96;101755.19;5006489;28;20062;-67
2022/08/30 09:41:35;;;;;;;6.60;1.90;;;;;;;23.94;54.25;101756.63;5013392;28;20079;-68
2022/08/30 09:44:07;;;;;;;4.80;1.80;;;;;;;24.20;54.37;101758.59;5011455;28;20042;-67
2022/08/30 09:46:34;;;;;;;4.47;2.00;;;;;;;24.24;54.60;101751.97;5005161;28;20045;-67
2022/08/30 09:49:00;;;;;;;3.65;1.73;;;;;;;24.08;55.07;101756.19;5006369;28;20131;-67
2022/08/30 09:51:44;;;;;;;6.40;1.98;;;;;;;23.98;54.23;101753.50;5007194;28;20095;-67
2022/08/30 09:54:18;;;;;;;7.95;2.00;;;;;;;24.18;54.11;101755.25;5004465;28;20108;-67
2022/08/30 09:56:56;;;;;;;4.68;1.75;;;;;;;24.03;54.27;101756.63;5002865;28;20108;-67
2022/08/30 09:59:40;;;;;;;11.43;1.83;;;;;;;24.14;53.98;101748.47;5007172;28;20045;-68
2022/08/30 10:02:27;;;;;;;6.28;1.83;;;;;;;24.95;52.96;101746.16;5012079;28;20409;-67
2022/08/30 10:05:02;;;;;;;3.83;1.80;;;;;;;25.64;51.99;101742.00;5002689;28;20100;-68
2022/08/30 10:07:35;;;;;;;3.55;1.70;;;;;;;25.33;49.71;101737.94;4994240;28;20037;-68
2022/08/30 10:10:09;;;;;;;6.55;1.90;;;;;;;24.76;51.35;101736.31;5006269;28;20558;-68
2022/08/30 10:12:42;;;;;;;6.32;1.83;;;;;;;26.08;53.00;101742.06;5005963;28;20084;-68
2022/08/30 10:15:17;;;;;;;3.45;1.60;;;;;;;26.83;49.83;101735.22;5004538;28;20045;-68
2022/08/30 10:17:53;;;;;;;4.80;2.00;;;;;;;26.97;45.91;101731.94;5004454;28;20100;-68
2022/08/30 10:20:26;;;;;;;3.58;1.70;;;;;;;25.83;47.26;101735.59;5004714;28;20046;-68
2022/08/30 10:22:58;;;;;;;3.92;1.80;;;;;;;26.04;47.69;101740.69;5006483;28;20069;-67
2022/08/30 10:25:28;;;;;;;4.15;1.50;;;;;;;26.61;49.29;101736.56;5005707;28;20054;-67
2022/08/30 10:27:59;;;;;;;6.18;1.50;;;;;;;26.72;48.52;101733.59;5006668;28;20092;-67
2022/08/30 10:30:30;;;;;;;5.05;1.58;;;;;;;27.31;44.84;101729.19;5005436;28;20712;-67
2022/08/30 10:33:03;;;;;;;2.50;1.77;;;;;;;26.89;45.77;101724.66;5004200;28;20564;-68
2022/08/30 10:35:34;;;;;;;4.85;1.73;;;;;;;27.10;43.51;101721.53;5004395;28;20052;-67
2022/08/30 10:38:06;;;;;;;9.63;2.03;;;;;;;27.78;45.69;101722.25;5007107;28;20059;-67
2022/08/30 10:43:26;;;;;;;2.40;1.38;;;;;;;29.78;41.54;101710.16;5003437;28;19987;-67
2022/08/30 10:45:57;;;;;;;5.10;1.60;;;;;;;28.88;40.16;101717.06;4998525;28;20556;-67
2022/08/30 10:48:26;;;;;;;5.20;1.42;;;;;;;27.99;42.54;101721.72;5006276;28;20076;-67
2022/08/30 10:50:58;;;;;;;5.97;1.90;;;;;;;28.21;40.52;101720.22;5004583;28;20124;-67
2022/08/30 10:53:30;;;;;;;2.67;1.48;;;;;;;27.86;42.72;101722.22;5025007;28;20451;-67
2022/08/30 10:56:02;;;;;;;6.28;1.67;;;;;;;27.19;43.93;101720.56;5021212;28;20073;-68
2022/08/30 10:58:31;;;;;;;6.93;1.95;;;;;;;26.64;43.98;101709.38;5004852;28;20074;-67
2022/08/30 11:01:14;;;;;;;4.60;1.80;;;;;;;25.95;45.96;101707.50;5002755;28;20051;-67
2022/08/30 11:04:16;;;;;;;7.32;1.60;;;;;;;26.67;46.59;101708.19;5001328;28;20602;-67
2022/08/30 11:06:49;;;;;;;4.68;1.75;;;;;;;26.98;44.71;101707.53;4983920;28;20154;-67
2022/08/30 11:09:29;;;;;;;2.72;1.50;;;;;;;26.71;43.43;101707.72;5000877;28;20054;-67
2022/08/30 11:12:21;;;;;;;3.53;1.73;;;;;;;27.09;44.17;101706.38;5010798;28;20092;-67
2022/08/30 11:14:48;;;;;;;4.33;1.70;;;;;;;26.73;43.98;101707.53;5001736;28;20073;-67
2022/08/30 11:17:25;;;;;;;5.07;2.08;;;;;;;26.56;45.03;101703.94;5006053;28;20046;-66
2022/08/30 11:19:53;;;;;;;13.93;1.75;;;;;;;26.88;44.98;101708.66;5005592;28;20465;-66
2022/08/30 11:22:24;;;;;;;3.45;1.75;;;;;;;27.08;44.40;101707.41;4998441;28;20050;-66
2022/08/30 11:25:02;;;;;;;5.88;2.00;;;;;;;27.72;43.00;101711.25;5005186;28;20052;-66
2022/08/30 11:27:45;;;;;;;5.65;1.60;;;;;;;27.94;43.00;101706.06;5011528;28;20050;-66
2022/08/30 11:30:45;;;;;;;12.80;2.25;;;;;;;27.41;44.00;101708.34;5010675;28;20042;-66
2022/08/30 11:33:29;;;;;;;31.00;2.95;;;;;;;27.55;43.18;101700.47;5005841;28;20053;-67
2022/08/30 11:35:55;;;;;;;2.05;1.42;;;;;;;27.26;42.25;101701.91;5006209;28;20100;-66
2022/08/30 11:38:56;;;;;;;5.57;2.00;;;;;;;27.03;42.91;101694.44;4995794;28;20104;-67